Time;durP1;ratioP1;P1;durP2;ratioP2;P2;SDS_P1;SDS_P2;PMS_P1;PMS_P2;Temp;Humidity;BMP_temperature;BMP_pressure;BME280_temperature;BME280_humidity;BME280_pressure;Samples;Min_cycle;Max_cycle;Signal;HPM_P1;HPM_P2
2021/09/08 00:02:05;;;;;;;21.50;18.47;;;14.20;99.90;;;;;;5034160;28;20403;-71
2021/09/08 00:04:31;;;;;;;23.13;18.30;;;14.20;99.90;;;;;;5033882;28;20265;-71
2021/09/08 00:06:56;;;;;;;21.70;18.70;;;14.10;99.90;;;;;;5033943;28;20556;-70
2021/09/08 00:09:22;;;;;;;24.30;18.60;;;14.10;99.90;;;;;;5034126;28;20420;-70
2021/09/08 00:11:47;;;;;;;21.60;18.17;;;14.10;99.90;;;;;;5033969;28;20691;-70
2021/09/08 00:14:13;;;;;;;24.73;18.83;;;14.10;99.90;;;;;;5033894;28;20270;-71
2021/09/08 00:16:39;;;;;;;25.30;19.60;;;14.10;99.90;;;;;;5033772;28;20187;-71
2021/09/08 00:19:04;;;;;;;28.13;19.17;;;14.10;99.90;;;;;;5034029;28;20639;-70
2021/09/08 00:21:29;;;;;;;29.47;23.03;;;14.10;99.90;;;;;;5033613;28;20171;-71
2021/09/08 00:23:55;;;;;;;29.10;23.57;;;14.10;99.90;;;;;;5033511;28;20195;-70
2021/09/08 00:26:20;;;;;;;31.63;21.63;;;14.10;99.90;;;;;;5033988;28;20246;-70
2021/09/08 00:28:46;;;;;;;28.00;20.67;;;14.10;99.90;;;;;;5033628;28;20172;-70
2021/09/08 00:31:11;;;;;;;27.23;20.23;;;14.10;99.90;;;;;;5034030;28;20171;-70
2021/09/08 00:33:37;;;;;;;29.50;22.27;;;14.10;99.90;;;;;;5033443;28;20548;-70
2021/09/08 00:36:03;;;;;;;31.93;23.23;;;14.00;99.90;;;;;;5033621;28;20209;-71
2021/09/08 00:38:28;;;;;;;29.10;21.97;;;14.00;99.90;;;;;;5033781;28;20615;-70
2021/09/08 00:40:55;;;;;;;27.80;22.57;;;14.00;99.90;;;;;;5033493;28;20174;-70
2021/09/08 00:43:21;;;;;;;26.37;20.57;;;14.00;99.90;;;;;;5034303;28;20190;-70
2021/09/08 00:45:54;;;;;;;25.83;21.23;;;14.00;99.90;;;;;;5033617;28;20816;-70
2021/09/08 00:48:20;;;;;;;24.47;20.80;;;13.90;99.90;;;;;;5033133;28;20477;-70
2021/09/08 00:50:47;;;;;;;28.30;19.90;;;13.90;99.90;;;;;;5033542;28;20407;-71
2021/09/08 00:53:16;;;;;;;25.20;20.40;;;13.90;99.90;;;;;;5032517;28;20426;-70
2021/09/08 00:55:44;;;;;;;28.30;19.57;;;13.90;99.90;;;;;;5033406;28;20961;-70
2021/09/08 00:58:10;;;;;;;27.50;21.57;;;13.90;99.90;;;;;;5033070;28;20402;-70
2021/09/08 01:00:36;;;;;;;31.37;24.43;;;13.90;99.90;;;;;;5032893;28;20429;-71
2021/09/08 01:03:01;;;;;;;31.67;23.57;;;13.90;99.90;;;;;;5032950;28;20434;-70
2021/09/08 01:05:27;;;;;;;31.00;22.60;;;13.90;99.90;;;;;;5032860;28;20237;-70
2021/09/08 01:07:52;;;;;;;25.77;20.17;;;13.90;99.90;;;;;;5032980;28;20168;-71
2021/09/08 01:10:18;;;;;;;29.70;22.33;;;13.90;99.90;;;;;;5032989;28;20175;-71
2021/09/08 01:12:43;;;;;;;24.67;21.40;;;13.90;99.90;;;;;;5031499;28;20226;-70
2021/09/08 01:15:12;;;;;;;26.70;21.57;;;13.90;99.90;;;;;;5030298;28;20179;-70
2021/09/08 01:17:37;;;;;;;26.67;20.30;;;13.90;99.90;;;;;;5032725;28;20515;-70
2021/09/08 01:20:03;;;;;;;26.80;20.10;;;13.90;99.90;;;;;;5033141;28;20445;-70
2021/09/08 01:22:31;;;;;;;25.20;21.00;;;13.90;99.90;;;;;;5033457;28;20178;-71
2021/09/08 01:24:57;;;;;;;27.63;20.63;;;13.90;99.90;;;;;;5034144;28;20450;-71
2021/09/08 01:27:26;;;;;;;23.70;19.00;;;13.90;99.90;;;;;;5033613;28;20914;-70
2021/09/08 01:29:51;;;;;;;29.90;19.70;;;14.00;99.90;;;;;;5033138;28;20401;-70
2021/09/08 01:32:17;;;;;;;25.07;18.53;;;14.00;99.90;;;;;;5032690;28;20418;-70
2021/09/08 01:34:42;;;;;;;21.50;18.07;;;14.10;99.90;;;;;;5032334;28;20629;-70
2021/09/08 01:37:10;;;;;;;23.27;19.63;;;14.10;99.90;;;;;;5032270;28;20176;-70
2021/09/08 01:39:35;;;;;;;24.73;19.57;;;14.00;99.90;;;;;;5032607;28;20643;-71
2021/09/08 01:42:01;;;;;;;23.43;18.60;;;14.00;99.90;;;;;;5032245;28;20434;-70
2021/09/08 01:44:26;;;;;;;24.53;19.93;;;14.00;99.90;;;;;;5032415;28;20200;-70
2021/09/08 01:46:54;;;;;;;20.70;17.40;;;14.00;99.90;;;;;;5032643;28;20229;-70
2021/09/08 01:49:20;;;;;;;27.50;16.40;;;14.00;99.90;;;;;;5032275;28;20163;-70
2021/09/08 01:51:46;;;;;;;20.87;16.33;;;14.00;99.90;;;;;;5032151;28;20402;-70
2021/09/08 01:54:12;;;;;;;23.40;17.57;;;14.00;99.90;;;;;;5032026;28;20824;-70
2021/09/08 01:56:38;;;;;;;19.50;17.10;;;14.00;99.90;;;;;;5032022;28;20174;-70
2021/09/08 01:59:04;;;;;;;22.77;15.90;;;13.90;99.90;;;;;;5032069;28;20174;-70
2021/09/08 02:01:30;;;;;;;24.43;18.87;;;13.90;99.90;;;;;;5031897;28;20438;-70
2021/09/08 02:03:56;;;;;;;18.73;14.57;;;14.00;99.90;;;;;;5031743;28;20450;-69
2021/09/08 02:06:24;;;;;;;22.77;17.40;;;13.90;99.90;;;;;;5032079;28;20433;-70
2021/09/08 02:08:54;;;;;;;19.30;15.43;;;13.90;99.90;;;;;;5031782;28;20207;-70
2021/09/08 02:11:20;;;;;;;20.53;15.97;;;13.90;99.90;;;;;;5031975;28;20885;-69
2021/09/08 02:13:47;;;;;;;18.27;16.30;;;13.90;99.90;;;;;;5031863;28;20426;-71
2021/09/08 02:16:12;;;;;;;20.23;17.63;;;13.80;99.90;;;;;;5032031;28;20182;-70
2021/09/08 02:18:38;;;;;;;19.00;16.40;;;13.80;99.90;;;;;;5031430;28;20489;-69
2021/09/08 02:21:03;;;;;;;18.50;16.47;;;13.80;99.90;;;;;;5031520;28;20211;-70
2021/09/08 02:23:29;;;;;;;24.77;18.83;;;13.80;99.90;;;;;;5031388;28;20192;-70
2021/09/08 02:25:54;;;;;;;19.87;17.03;;;13.80;99.90;;;;;;5031478;28;20200;-70
2021/09/08 02:28:20;;;;;;;21.00;15.57;;;13.70;99.90;;;;;;5031741;28;20685;-71
2021/09/08 02:30:47;;;;;;;21.20;17.87;;;13.70;99.90;;;;;;5031329;28;20171;-69
2021/09/08 02:33:14;;;;;;;20.87;18.20;;;13.60;99.90;;;;;;5031406;28;20200;-69
2021/09/08 02:35:39;;;;;;;20.13;17.77;;;13.60;99.90;;;;;;5031201;28;20830;-69
2021/09/08 02:38:05;;;;;;;19.00;17.00;;;13.60;99.90;;;;;;5031153;28;20513;-69
2021/09/08 02:40:30;;;;;;;22.30;17.53;;;13.50;99.90;;;;;;5031151;28;20164;-70
2021/09/08 02:42:55;;;;;;;17.93;15.37;;;13.50;99.90;;;;;;5031126;28;20226;-70
2021/09/08 02:45:21;;;;;;;20.30;16.20;;;13.50;99.90;;;;;;5031436;28;20261;-70
2021/09/08 02:47:46;;;;;;;21.67;16.30;;;13.40;99.90;;;;;;5031476;28;20171;-70
2021/09/08 02:50:12;;;;;;;20.07;16.77;;;13.40;99.90;;;;;;5031386;28;20242;-70
2021/09/08 02:52:37;;;;;;;21.73;16.63;;;13.40;99.90;;;;;;5031102;28;20595;-70
2021/09/08 02:55:03;;;;;;;19.40;17.27;;;13.40;99.90;;;;;;5031312;28;20282;-69
2021/09/08 02:57:28;;;;;;;22.27;18.03;;;13.30;99.90;;;;;;5030902;28;20175;-69
2021/09/08 02:59:54;;;;;;;22.27;17.93;;;13.30;99.90;;;;;;5031229;28;20171;-70
2021/09/08 03:02:19;;;;;;;20.50;16.97;;;13.30;99.90;;;;;;5031080;28;20163;-69
2021/09/08 03:04:45;;;;;;;23.87;18.30;;;13.30;99.90;;;;;;5030990;28;20689;-70
2021/09/08 03:07:10;;;;;;;20.30;16.87;;;13.30;99.90;;;;;;5031019;28;20514;-69
2021/09/08 03:09:36;;;;;;;19.00;15.83;;;13.20;99.90;;;;;;5030814;28;20311;-70
2021/09/08 03:12:02;;;;;;;20.60;16.53;;;13.20;99.90;;;;;;5031048;28;20160;-69
2021/09/08 03:14:27;;;;;;;19.60;15.70;;;13.20;99.90;;;;;;5030287;28;20187;-69
2021/09/08 03:16:53;;;;;;;16.90;15.07;;;13.20;99.90;;;;;;5034775;28;20172;-69
2021/09/08 03:19:18;;;;;;;19.60;16.37;;;13.20;99.90;;;;;;5034921;28;20179;-69
2021/09/08 03:21:43;;;;;;;19.90;15.77;;;13.20;99.90;;;;;;5034831;28;20191;-69
2021/09/08 03:24:09;;;;;;;20.33;17.20;;;13.20;99.90;;;;;;5033667;28;20233;-69
2021/09/08 03:26:34;;;;;;;22.80;17.63;;;13.10;99.90;;;;;;5034941;28;20242;-69
2021/09/08 03:29:00;;;;;;;20.57;16.03;;;13.10;99.90;;;;;;5034565;28;20285;-69
2021/09/08 03:31:25;;;;;;;18.07;15.53;;;13.10;99.90;;;;;;5034572;28;20176;-69
2021/09/08 03:33:51;;;;;;;21.43;17.60;;;13.10;99.90;;;;;;5034369;28;20203;-70
2021/09/08 03:36:16;;;;;;;19.90;17.17;;;13.10;99.90;;;;;;5034549;28;20519;-69
2021/09/08 03:38:42;;;;;;;20.20;17.70;;;13.20;99.90;;;;;;5034238;28;20171;-69
2021/09/08 03:41:07;;;;;;;20.93;16.47;;;13.10;99.90;;;;;;5034587;28;20184;-70
2021/09/08 03:43:32;;;;;;;19.57;16.60;;;13.10;99.90;;;;;;5034627;28;20188;-70
2021/09/08 03:45:58;;;;;;;22.90;15.43;;;13.10;99.90;;;;;;5034228;28;20207;-70
2021/09/08 03:48:24;;;;;;;25.47;17.63;;;13.20;99.90;;;;;;5034518;28;20273;-70
2021/09/08 03:50:49;;;;;;;18.40;15.80;;;13.20;99.90;;;;;;5034501;28;20197;-70
2021/09/08 03:53:14;;;;;;;20.33;17.03;;;13.20;99.90;;;;;;5034114;28;20194;-70
2021/09/08 03:55:40;;;;;;;19.40;15.90;;;13.10;99.90;;;;;;5034250;28;20558;-70
2021/09/08 03:58:05;;;;;;;22.67;18.23;;;13.10;99.90;;;;;;5034191;28;20180;-70
2021/09/08 04:00:31;;;;;;;21.80;17.70;;;13.10;99.90;;;;;;5034324;28;20174;-70
2021/09/08 04:02:56;;;;;;;20.47;16.27;;;13.20;99.90;;;;;;5034171;28;20660;-70
2021/09/08 04:05:22;;;;;;;24.50;19.03;;;13.20;99.90;;;;;;5016251;28;20574;-71
2021/09/08 04:07:47;;;;;;;20.10;15.80;;;13.10;99.90;;;;;;5033984;28;20202;-70
2021/09/08 04:10:13;;;;;;;18.43;16.43;;;13.20;99.90;;;;;;5034212;28;20442;-70
2021/09/08 04:12:38;;;;;;;21.23;16.13;;;13.20;99.90;;;;;;5034093;28;20172;-70
2021/09/08 04:15:04;;;;;;;19.90;15.90;;;13.20;99.90;;;;;;5034058;28;20172;-69
2021/09/08 04:17:30;;;;;;;18.83;15.80;;;13.20;99.90;;;;;;5033618;28;20176;-70
2021/09/08 04:19:55;;;;;;;18.60;15.83;;;13.20;99.90;;;;;;5033816;28;20788;-69
2021/09/08 04:22:20;;;;;;;20.40;16.83;;;13.20;99.90;;;;;;5033522;28;20247;-69
2021/09/08 04:24:46;;;;;;;20.07;16.60;;;13.20;99.90;;;;;;5033944;28;20203;-70
2021/09/08 04:27:11;;;;;;;18.20;15.47;;;13.10;99.90;;;;;;5032884;28;20230;-72
2021/09/08 04:29:37;;;;;;;20.60;15.67;;;13.20;99.90;;;;;;5034317;28;20171;-70
2021/09/08 04:32:03;;;;;;;19.23;15.80;;;13.20;99.90;;;;;;5033983;28;20274;-70
2021/09/08 04:34:28;;;;;;;23.33;16.00;;;13.20;99.90;;;;;;5033888;28;20233;-69
2021/09/08 04:36:53;;;;;;;23.30;18.00;;;13.20;99.90;;;;;;5034073;28;20254;-69
2021/09/08 04:39:19;;;;;;;21.03;17.60;;;13.10;99.90;;;;;;5034217;28;20186;-69
2021/09/08 04:41:44;;;;;;;21.27;16.00;;;13.20;99.90;;;;;;5034595;28;20175;-69
2021/09/08 04:44:10;;;;;;;21.27;15.47;;;13.30;99.90;;;;;;5034738;28;20192;-69
2021/09/08 04:46:35;;;;;;;24.97;17.20;;;13.40;99.90;;;;;;5034472;28;20203;-70
2021/09/08 04:49:01;;;;;;;21.40;15.23;;;13.40;99.90;;;;;;5034403;28;20195;-70
2021/09/08 04:51:26;;;;;;;19.17;17.17;;;13.50;99.90;;;;;;5033780;28;20174;-70
2021/09/08 04:53:52;;;;;;;23.77;16.47;;;13.50;99.90;;;;;;5033081;28;20278;-70
2021/09/08 04:56:17;;;;;;;21.63;16.67;;;13.60;99.90;;;;;;5033228;28;20175;-70
2021/09/08 04:58:43;;;;;;;25.07;17.27;;;13.60;99.90;;;;;;5032983;28;20164;-70
2021/09/08 05:01:08;;;;;;;20.03;17.40;;;13.70;99.90;;;;;;5033150;28;20200;-70
2021/09/08 05:03:34;;;;;;;22.27;16.70;;;13.70;99.90;;;;;;5033170;28;20651;-70
2021/09/08 05:05:59;;;;;;;19.23;15.90;;;13.80;99.90;;;;;;5032948;28;20566;-70
2021/09/08 05:08:25;;;;;;;18.10;14.63;;;13.80;99.90;;;;;;5015354;28;20168;-70
2021/09/08 05:10:51;;;;;;;20.13;14.83;;;13.90;99.90;;;;;;5032965;28;20799;-70
2021/09/08 05:13:16;;;;;;;20.60;16.00;;;13.90;99.90;;;;;;5033276;28;20534;-70
2021/09/08 05:15:42;;;;;;;21.30;15.97;;;14.00;99.90;;;;;;5032976;28;20175;-70
2021/09/08 05:18:07;;;;;;;21.73;15.33;;;14.00;99.90;;;;;;5033187;28;20599;-70
2021/09/08 05:20:33;;;;;;;21.40;16.13;;;14.10;99.90;;;;;;5033143;28;20654;-70
2021/09/08 05:22:59;;;;;;;18.33;14.20;;;14.20;99.90;;;;;;5032830;28;20199;-70
2021/09/08 05:25:24;;;;;;;19.47;15.03;;;14.30;99.90;;;;;;5032814;28;20976;-70
2021/09/08 05:27:50;;;;;;;18.50;15.30;;;14.40;99.90;;;;;;5032637;28;20611;-70
2021/09/08 05:30:15;;;;;;;23.00;15.33;;;14.50;99.90;;;;;;5032832;28;20509;-70
2021/09/08 05:32:41;;;;;;;19.07;15.27;;;14.60;99.90;;;;;;5032645;28;20168;-69
2021/09/08 05:35:06;;;;;;;18.47;15.57;;;14.70;99.90;;;;;;5032849;28;20179;-70
2021/09/08 05:37:32;;;;;;;17.50;14.50;;;14.80;99.90;;;;;;5031954;28;20172;-70
2021/09/08 05:39:57;;;;;;;17.83;15.33;;;14.90;99.90;;;;;;5032425;28;20411;-70
2021/09/08 05:42:23;;;;;;;19.77;15.50;;;15.00;99.90;;;;;;5032722;28;20259;-70
2021/09/08 05:44:48;;;;;;;18.60;14.70;;;15.10;99.90;;;;;;5032181;28;20200;-69
2021/09/08 05:47:14;;;;;;;16.20;13.00;;;15.40;99.90;;;;;;5032244;28;20523;-69
2021/09/08 05:49:39;;;;;;;18.10;14.00;;;16.00;99.90;;;;;;5032379;28;20180;-70
2021/09/08 05:52:05;;;;;;;16.40;12.53;;;16.50;99.90;;;;;;5031841;28;20528;-70
2021/09/08 05:54:30;;;;;;;14.97;12.43;;;17.00;99.90;;;;;;5032000;28;20672;-70
2021/09/08 05:56:56;;;;;;;13.90;11.73;;;17.60;99.90;;;;;;5031981;28;20508;-70
2021/09/08 05:59:22;;;;;;;16.10;12.50;;;18.20;99.90;;;;;;5032055;28;20188;-70
2021/09/08 06:01:47;;;;;;;16.67;12.57;;;18.40;99.90;;;;;;5032047;28;20598;-70
2021/09/08 06:04:12;;;;;;;13.57;11.60;;;18.60;99.90;;;;;;5032020;28;20196;-70
2021/09/08 06:06:38;;;;;;;17.37;12.73;;;19.30;99.90;;;;;;5032204;28;20170;-70
2021/09/08 06:09:04;;;;;;;15.30;11.33;;;19.70;99.90;;;;;;5032253;28;20170;-70
2021/09/08 06:11:29;;;;;;;13.80;11.27;;;19.40;99.90;;;;;;5031766;28;20681;-70
2021/09/08 06:13:55;;;;;;;17.53;13.00;;;20.00;99.90;;;;;;5013944;28;20197;-70
2021/09/08 06:16:21;;;;;;;12.70;11.27;;;19.60;99.90;;;;;;5031853;28;20177;-70
2021/09/08 06:18:47;;;;;;;15.97;12.67;;;20.00;99.90;;;;;;5032098;28;20520;-70
2021/09/08 06:21:12;;;;;;;13.67;12.27;;;20.30;99.90;;;;;;5031815;28;20422;-70
2021/09/08 06:23:38;;;;;;;12.50;11.17;;;20.90;99.90;;;;;;5032099;28;20191;-70
2021/09/08 06:26:03;;;;;;;12.17;10.93;;;22.10;99.90;;;;;;5031663;28;20281;-70
2021/09/08 06:28:30;;;;;;;15.90;10.60;;;21.50;99.90;;;;;;5031633;28;20171;-70
2021/09/08 06:30:55;;;;;;;14.70;11.97;;;21.40;99.90;;;;;;5031865;28;20242;-70
2021/09/08 06:33:21;;;;;;;12.50;11.20;;;21.00;99.90;;;;;;5031685;28;20453;-70
2021/09/08 06:35:47;;;;;;;13.17;11.80;;;21.20;99.90;;;;;;5031460;28;20166;-70
2021/09/08 06:38:12;;;;;;;14.23;11.50;;;21.80;99.90;;;;;;5031798;28;20647;-70
2021/09/08 06:40:38;;;;;;;15.20;10.93;;;21.80;99.90;;;;;;5013769;28;20639;-70
2021/09/08 06:43:03;;;;;;;11.50;10.40;;;21.30;99.90;;;;;;5031395;28;20183;-70
2021/09/08 06:45:29;;;;;;;13.20;11.03;;;21.40;99.90;;;;;;5031301;28;20200;-70
2021/09/08 06:47:54;;;;;;;12.63;10.83;;;22.00;99.90;;;;;;5031257;28;20177;-70
2021/09/08 06:50:20;;;;;;;11.10;10.00;;;22.20;99.90;;;;;;5030471;28;20587;-70
2021/09/08 06:52:45;;;;;;;10.70;9.70;;;23.30;99.90;;;;;;5031610;28;20205;-69
2021/09/08 06:55:10;;;;;;;16.50;10.50;;;24.20;99.90;;;;;;5031318;28;20606;-69
2021/09/08 06:57:36;;;;;;;11.47;10.27;;;23.90;99.90;;;;;;5031192;28;20270;-70
2021/09/08 07:00:02;;;;;;;10.10;9.07;;;24.20;99.90;;;;;;5031286;28;20167;-69
2021/09/08 07:02:28;;;;;;;10.77;9.23;;;24.20;99.90;;;;;;5031297;28;20175;-70
2021/09/08 07:04:53;;;;;;;10.80;9.70;;;24.80;99.90;;;;;;5013416;28;20457;-69
2021/09/08 07:07:20;;;;;;;10.73;9.70;;;24.80;99.90;;;;;;5013418;28;20175;-69
2021/09/08 07:09:46;;;;;;;13.23;9.90;;;23.60;99.90;;;;;;5031377;28;20171;-70
2021/09/08 07:12:12;;;;;;;13.10;10.87;;;24.50;99.90;;;;;;5031017;28;20438;-70
2021/09/08 07:14:37;;;;;;;10.90;9.83;;;24.30;99.90;;;;;;5031168;28;20438;-70
2021/09/08 07:17:03;;;;;;;14.50;10.60;;;24.60;99.90;;;;;;5030925;28;20278;-70
2021/09/08 07:19:29;;;;;;;11.70;10.50;;;25.10;99.90;;;;;;5031190;28;20447;-70
2021/09/08 07:21:54;;;;;;;11.20;10.13;;;24.80;99.90;;;;;;5030920;28;20179;-70
2021/09/08 07:24:19;;;;;;;10.87;9.80;;;25.40;99.90;;;;;;5031141;28;20560;-70
2021/09/08 07:26:45;;;;;;;11.87;9.20;;;24.30;99.90;;;;;;5030842;28;20258;-70
2021/09/08 07:29:11;;;;;;;12.20;9.70;;;24.80;99.90;;;;;;5030919;28;20168;-70
2021/09/08 07:31:36;;;;;;;11.93;10.70;;;24.70;99.90;;;;;;5030756;28;20552;-70
2021/09/08 07:34:03;;;;;;;12.63;9.77;;;25.10;99.90;;;;;;5030723;28;20184;-70
2021/09/08 07:36:28;;;;;;;13.20;10.93;;;25.40;99.90;;;;;;5013271;28;20529;-69
2021/09/08 07:38:54;;;;;;;10.33;9.00;;;24.80;99.90;;;;;;5031028;28;20409;-70
2021/09/08 07:41:21;;;;;;;10.33;9.27;;;25.10;99.90;;;;;;5030915;28;20229;-70
2021/09/08 07:43:47;;;;;;;13.27;9.83;;;25.10;99.90;;;;;;5030913;28;20211;-70
2021/09/08 07:46:18;;;;;;;18.30;9.83;;;24.20;99.90;;;;;;5031365;28;20508;-70
2021/09/08 07:48:47;;;;;;;9.40;8.50;;;24.70;99.90;;;;;;5013354;28;20437;-70
2021/09/08 07:51:15;;;;;;;9.80;8.87;;;25.70;99.90;;;;;;5031042;28;20818;-70
2021/09/08 07:53:43;;;;;;;10.10;9.10;;;26.80;99.90;;;;;;5030914;28;20468;-70
2021/09/08 07:56:09;;;;;;;10.73;9.50;;;25.20;99.90;;;;;;5031061;28;20460;-70
2021/09/08 07:58:35;;;;;;;11.13;10.03;;;25.60;99.90;;;;;;5031041;28;20893;-70
2021/09/08 08:01:04;;;;;;;8.73;7.90;;;26.30;99.90;;;;;;5031316;28;20398;-70
2021/09/08 08:03:32;;;;;;;12.80;8.97;;;26.10;99.90;;;;;;5034370;28;20610;-70
2021/09/08 08:05:58;;;;;;;9.77;7.57;;;26.90;99.90;;;;;;5034401;28;20862;-70
2021/09/08 08:08:23;;;;;;;8.70;7.90;;;27.20;99.20;;;;;;5034129;28;20402;-70
2021/09/08 08:10:49;;;;;;;7.63;6.93;;;26.90;99.80;;;;;;5034780;28;20210;-70
2021/09/08 08:13:14;;;;;;;9.10;8.30;;;27.00;98.60;;;;;;5034430;28;20195;-70
2021/09/08 08:15:40;;;;;;;8.33;7.53;;;27.70;97.40;;;;;;5033821;28;20249;-70
2021/09/08 08:18:05;;;;;;;8.17;7.37;;;27.00;96.90;;;;;;5033643;28;20182;-70
2021/09/08 08:20:31;;;;;;;8.57;7.47;;;27.10;97.30;;;;;;5034069;28;20414;-70
2021/09/08 08:22:57;;;;;;;9.83;7.70;;;26.90;98.30;;;;;;5033790;28;20554;-70
2021/09/08 08:25:30;;;;;;;7.70;7.00;;;26.90;99.30;;;;;;5033783;28;20194;-70
2021/09/08 08:27:56;;;;;;;8.43;7.63;;;26.70;99.40;;;;;;5033729;28;20197;-70
2021/09/08 08:30:23;;;;;;;9.30;8.40;;;26.40;99.60;;;;;;5033569;28;20828;-71
2021/09/08 08:32:48;;;;;;;10.20;8.53;;;27.10;98.20;;;;;;5033281;28;20426;-69
2021/09/08 08:35:15;;;;;;;8.43;7.70;;;26.90;98.80;;;;;;5033075;28;20532;-69
2021/09/08 08:37:41;;;;;;;10.63;6.90;;;26.20;99.90;;;;;;5032574;28;20578;-69
2021/09/08 08:40:08;;;;;;;8.77;7.93;;;27.00;98.80;;;;;;5033478;28;20402;-70
2021/09/08 08:42:34;;;;;;;8.33;7.60;;;27.20;98.10;;;;;;5033288;28;20178;-69
2021/09/08 08:45:00;;;;;;;7.30;6.63;;;27.20;98.40;;;;;;5033326;28;20457;-69
2021/09/08 08:47:26;;;;;;;9.47;8.47;;;26.00;99.90;;;;;;5033545;28;20402;-71
2021/09/08 08:49:54;;;;;;;9.57;8.63;;;26.30;99.40;;;;;;5033371;28;20159;-69
2021/09/08 08:52:21;;;;;;;9.77;7.47;;;26.70;99.00;;;;;;5033305;28;20402;-70
2021/09/08 08:54:46;;;;;;;7.80;7.10;;;24.80;99.90;;;;;;5033104;28;20556;-69
2021/09/08 08:57:13;;;;;;;8.90;7.83;;;26.30;99.90;;;;;;5033231;28;20966;-69
2021/09/08 08:59:40;;;;;;;11.40;8.50;;;25.70;99.90;;;;;;5030716;28;20543;-69
2021/09/08 09:02:17;;;;;;;8.30;7.47;;;26.50;99.40;;;;;;5032629;28;20406;-70
2021/09/08 09:04:43;;;;;;;9.33;8.13;;;26.90;98.80;;;;;;5031426;28;20993;-69
2021/09/08 09:07:20;;;;;;;7.90;7.10;;;26.70;99.00;;;;;;5031320;28;20414;-69
2021/09/08 09:09:50;;;;;;;11.87;8.80;;;27.30;98.50;;;;;;5032478;28;20218;-70
2021/09/08 09:12:16;;;;;;;7.77;7.00;;;26.90;99.10;;;;;;5032615;28;20736;-69
2021/09/08 09:14:42;;;;;;;10.40;7.00;;;27.40;98.10;;;;;;5032569;28;20441;-69
2021/09/08 09:17:12;;;;;;;8.97;7.57;;;27.40;98.00;;;;;;5032658;28;20183;-70
2021/09/08 09:19:50;;;;;;;8.83;6.73;;;27.60;97.30;;;;;;5032903;28;20186;-70
2021/09/08 09:22:17;;;;;;;8.03;7.27;;;26.20;98.90;;;;;;5032642;28;20781;-69
2021/09/08 09:24:43;;;;;;;8.90;6.43;;;26.20;99.40;;;;;;5032444;28;20468;-69
2021/09/08 09:27:12;;;;;;;9.07;7.67;;;27.30;97.50;;;;;;5032741;28;20410;-69
2021/09/08 09:29:42;;;;;;;8.37;7.33;;;27.20;97.70;;;;;;5032785;28;20225;-69
2021/09/08 09:32:10;;;;;;;7.23;6.63;;;26.80;97.90;;;;;;5032999;28;20444;-69
2021/09/08 09:34:38;;;;;;;9.90;8.83;;;27.20;97.40;;;;;;5032362;28;20434;-69
2021/09/08 09:37:04;;;;;;;7.67;6.90;;;26.90;97.70;;;;;;5031997;28;20398;-69
2021/09/08 09:39:34;;;;;;;6.70;6.20;;;27.00;97.00;;;;;;5032513;28;20480;-69
2021/09/08 09:42:05;;;;;;;9.07;7.10;;;27.30;96.50;;;;;;5032335;28;20164;-69
2021/09/08 09:44:31;;;;;;;7.57;6.90;;;27.50;96.10;;;;;;5032147;28;20511;-69
2021/09/08 09:46:57;;;;;;;7.30;6.70;;;27.60;96.30;;;;;;5032164;28;20398;-69
2021/09/08 09:49:25;;;;;;;7.70;7.00;;;27.30;95.80;;;;;;5032061;28;20962;-69
2021/09/08 09:51:55;;;;;;;7.43;6.83;;;27.20;96.40;;;;;;5032336;28;20203;-69
2021/09/08 09:54:24;;;;;;;7.17;6.57;;;26.20;96.50;;;;;;5032296;28;20440;-69
2021/09/08 09:56:54;;;;;;;8.80;7.67;;;25.80;97.90;;;;;;5032504;28;20862;-69
2021/09/08 09:59:21;;;;;;;8.53;7.13;;;25.20;98.90;;;;;;5032032;28;20410;-69
2021/09/08 10:01:46;;;;;;;8.03;7.27;;;25.20;99.50;;;;;;5031955;28;20496;-69
2021/09/08 10:04:12;;;;;;;9.03;8.10;;;24.90;99.90;;;;;;5031585;28;20912;-69
2021/09/08 10:06:39;;;;;;;9.23;8.10;;;24.80;99.90;;;;;;5031860;28;20203;-69
2021/09/08 10:09:06;;;;;;;9.20;7.60;;;24.60;99.90;;;;;;5031783;28;20261;-71
2021/09/08 10:11:34;;;;;;;8.13;7.33;;;24.60;99.90;;;;;;5031812;28;20409;-71
2021/09/08 10:14:05;;;;;;;12.47;8.10;;;24.60;99.90;;;;;;5031796;28;20431;-69
2021/09/08 10:16:33;;;;;;;9.23;7.03;;;24.30;99.90;;;;;;5031657;28;20862;-69
2021/09/08 10:19:04;;;;;;;13.73;7.90;;;24.50;99.90;;;;;;5031827;28;20423;-70
2021/09/08 10:21:29;;;;;;;9.20;8.20;;;24.40;99.90;;;;;;5031561;28;20413;-70
2021/09/08 10:23:59;;;;;;;9.13;7.57;;;24.10;99.90;;;;;;5031251;28;20421;-70
2021/09/08 10:26:30;;;;;;;9.50;7.87;;;24.30;99.90;;;;;;5031078;28;20239;-70
2021/09/08 10:29:07;;;;;;;8.73;7.83;;;24.10;99.90;;;;;;5031378;28;20416;-70
2021/09/08 10:31:36;;;;;;;9.43;8.63;;;24.10;99.90;;;;;;5031452;28;20504;-70
2021/09/08 10:34:03;;;;;;;8.70;7.47;;;24.10;99.90;;;;;;5031495;28;20485;-70
2021/09/08 10:36:28;;;;;;;8.80;8.00;;;24.10;99.90;;;;;;5031289;28;20405;-70
2021/09/08 10:39:15;;;;;;;8.67;7.83;;;24.00;99.90;;;;;;5031334;28;20976;-70
2021/09/08 10:41:46;;;;;;;10.03;8.43;;;24.10;99.90;;;;;;5031273;28;20263;-71
2021/09/08 10:44:12;;;;;;;9.47;7.83;;;24.30;99.90;;;;;;5031184;28;20483;-71
2021/09/08 10:46:54;;;;;;;8.13;7.33;;;24.20;99.90;;;;;;5031135;28;20485;-70
2021/09/08 10:49:40;;;;;;;10.80;9.03;;;24.20;99.90;;;;;;5031289;28;20851;-70
2021/09/08 10:52:08;;;;;;;8.60;7.23;;;24.20;99.90;;;;;;5013149;28;20414;-70
2021/09/08 10:54:53;;;;;;;9.87;7.87;;;24.10;99.90;;;;;;5031183;28;20460;-70
2021/09/08 10:57:48;;;;;;;9.07;7.73;;;24.10;99.90;;;;;;5030980;28;20494;-70
2021/09/08 11:00:20;;;;;;;9.50;8.50;;;24.00;99.90;;;;;;5029247;28;20414;-70
2021/09/08 11:02:46;;;;;;;8.97;8.07;;;24.10;99.90;;;;;;5030990;28;20403;-70
2021/09/08 11:05:13;;;;;;;8.57;7.83;;;24.10;99.90;;;;;;5031116;28;20511;-70
2021/09/08 11:07:45;;;;;;;9.40;8.60;;;24.10;99.90;;;;;;5030761;28;20534;-70
2021/09/08 11:10:12;;;;;;;8.27;7.43;;;24.00;99.90;;;;;;5031052;28;20438;-70
2021/09/08 11:12:53;;;;;;;10.93;7.80;;;24.20;99.90;;;;;;5013207;28;20543;-70
2021/09/08 11:15:35;;;;;;;9.60;8.37;;;24.20;99.90;;;;;;5031074;28;20410;-70
2021/09/08 11:18:03;;;;;;;9.50;8.50;;;24.00;99.90;;;;;;5031085;28;20896;-70
2021/09/08 11:20:29;;;;;;;11.80;7.30;;;24.30;99.90;;;;;;5031084;28;20506;-70
2021/09/08 11:23:03;;;;;;;8.63;7.87;;;24.40;99.90;;;;;;5030851;28;20526;-70
2021/09/08 11:25:32;;;;;;;9.43;7.30;;;24.60;99.90;;;;;;5030740;28;20227;-70
2021/09/08 11:27:57;;;;;;;8.57;7.67;;;24.40;99.90;;;;;;5030843;28;20403;-70
2021/09/08 11:30:29;;;;;;;8.13;7.43;;;24.20;99.90;;;;;;5031034;28;20399;-70
2021/09/08 11:32:59;;;;;;;7.93;6.63;;;24.20;99.90;;;;;;5030872;28;20602;-70
2021/09/08 11:35:44;;;;;;;7.07;6.37;;;24.30;99.90;;;;;;5030865;28;20413;-70
2021/09/08 11:38:11;;;;;;;7.63;6.77;;;24.40;99.90;;;;;;5034562;28;20469;-70
2021/09/08 11:40:40;;;;;;;7.77;6.73;;;24.50;99.90;;;;;;5034466;28;20416;-70
2021/09/08 11:43:05;;;;;;;7.27;6.57;;;24.70;99.90;;;;;;5034812;28;20975;-70
2021/09/08 11:45:31;;;;;;;8.33;7.47;;;24.60;99.90;;;;;;5034679;28;20488;-70
2021/09/08 11:47:58;;;;;;;12.63;7.80;;;24.40;99.90;;;;;;5034633;28;20162;-70
2021/09/08 11:50:23;;;;;;;9.30;8.40;;;24.10;99.90;;;;;;5035004;28;20443;-70
2021/09/08 11:52:56;;;;;;;10.10;8.10;;;24.20;99.90;;;;;;5034500;28;20427;-70
2021/09/08 11:55:33;;;;;;;8.97;8.17;;;23.90;99.90;;;;;;5034485;28;20578;-70
2021/09/08 11:58:34;;;;;;;8.57;7.67;;;24.10;99.90;;;;;;5034296;28;20426;-70
2021/09/08 12:01:04;;;;;;;8.80;7.47;;;24.30;99.90;;;;;;4972927;28;20830;-70
2021/09/08 12:03:30;;;;;;;9.03;7.23;;;24.40;99.90;;;;;;5022939;28;20502;-70
2021/09/08 12:06:14;;;;;;;7.03;6.33;;;24.60;99.90;;;;;;5033961;28;20460;-70
2021/09/08 12:09:04;;;;;;;8.70;7.90;;;24.50;99.90;;;;;;5034382;28;20413;-70
2021/09/08 12:11:40;;;;;;;8.17;7.37;;;24.30;99.90;;;;;;5033968;28;20929;-70
2021/09/08 12:14:23;;;;;;;9.13;8.30;;;24.30;99.90;;;;;;5034189;28;20433;-70
2021/09/08 12:16:51;;;;;;;7.97;7.27;;;24.30;99.90;;;;;;5033981;28;20405;-70
2021/09/08 12:19:19;;;;;;;8.70;7.80;;;24.40;99.90;;;;;;5034003;28;20436;-70
2021/09/08 12:21:46;;;;;;;8.30;6.80;;;24.40;99.90;;;;;;5034348;28;20752;-70
2021/09/08 12:24:26;;;;;;;7.43;6.70;;;24.30;99.90;;;;;;5034137;28;20428;-70
2021/09/08 12:26:54;;;;;;;7.83;6.43;;;24.30;99.90;;;;;;5034144;28;20439;-70
2021/09/08 12:29:19;;;;;;;9.03;7.53;;;24.20;99.90;;;;;;5033911;28;20416;-70
2021/09/08 12:31:47;;;;;;;6.70;6.00;;;24.20;99.90;;;;;;5033756;28;20420;-70
2021/09/08 12:34:13;;;;;;;6.70;6.10;;;24.30;99.90;;;;;;5033501;28;20230;-70